sensor_id;sensor_type;location;lat;lon;timestamp;pressure;altitude;pressure_sealevel;temperature;humidity
11329;BME280;5719;42.714;23.732;2023-08-08T00:00:48;94279.84;;;17.17;100.00
11329;BME280;5719;42.714;23.732;2023-08-08T00:03:16;94278.63;;;17.29;100.00
11329;BME280;5719;42.714;23.732;2023-08-08T00:05:43;94280.03;;;17.24;100.00
11329;BME280;5719;42.714;23.732;2023-08-08T00:08:10;94273.34;;;17.21;100.00
11329;BME280;5719;42.714;23.732;2023-08-08T00:10:37;94274.31;;;17.20;100.00
11329;BME280;5719;42.714;23.732;2023-08-08T00:13:04;94262.84;;;17.13;100.00
11329;BME280;5719;42.714;23.732;2023-08-08T00:15:31;94252.38;;;17.13;100.00
11329;BME280;5719;42.714;23.732;2023-08-08T00:17:58;94261.69;;;17.07;100.00
11329;BME280;5719;42.714;23.732;2023-08-08T00:20:26;94260.16;;;17.05;100.00
11329;BME280;5719;42.714;23.732;2023-08-08T00:22:53;94257.06;;;17.01;100.00
11329;BME280;5719;42.714;23.732;2023-08-08T00:25:20;94251.38;;;17.06;100.00
11329;BME280;5719;42.714;23.732;2023-08-08T00:27:47;94243.78;;;16.95;100.00
11329;BME280;5719;42.714;23.732;2023-08-08T00:30:14;94248.19;;;16.94;100.00
11329;BME280;5719;42.714;23.732;2023-08-08T00:32:41;94246.22;;;16.88;100.00
11329;BME280;5719;42.714;23.732;2023-08-08T00:35:08;94244.16;;;16.74;100.00
11329;BME280;5719;42.714;23.732;2023-08-08T00:37:37;94237.50;;;16.80;100.00
11329;BME280;5719;42.714;23.732;2023-08-08T00:40:05;94243.22;;;16.83;100.00
11329;BME280;5719;42.714;23.732;2023-08-08T00:42:32;94239.19;;;16.63;100.00
11329;BME280;5719;42.714;23.732;2023-08-08T00:44:59;94258.72;;;16.59;100.00
11329;BME280;5719;42.714;23.732;2023-08-08T00:47:29;94255.91;;;16.35;100.00
11329;BME280;5719;42.714;23.732;2023-08-08T00:49:56;94278.34;;;16.45;100.00
11329;BME280;5719;42.714;23.732;2023-08-08T00:52:23;94267.16;;;16.35;100.00
11329;BME280;5719;42.714;23.732;2023-08-08T00:54:53;94273.19;;;16.18;100.00
11329;BME280;5719;42.714;23.732;2023-08-08T00:57:20;94301.03;;;16.00;100.00
11329;BME280;5719;42.714;23.732;2023-08-08T00:59:47;94301.03;;;16.00;100.00
11329;BME280;5719;42.714;23.732;2023-08-08T01:02:14;94300.38;;;15.98;100.00
11329;BME280;5719;42.714;23.732;2023-08-08T01:04:41;94303.94;;;15.97;100.00
11329;BME280;5719;42.714;23.732;2023-08-08T01:07:14;94291.09;;;15.86;100.00
11329;BME280;5719;42.714;23.732;2023-08-08T01:09:48;94302.25;;;15.78;100.00
11329;BME280;5719;42.714;23.732;2023-08-08T01:12:19;94302.81;;;15.54;100.00
11329;BME280;5719;42.714;23.732;2023-08-08T01:14:46;94304.72;;;15.52;100.00
11329;BME280;5719;42.714;23.732;2023-08-08T01:17:15;94304.78;;;15.33;100.00
11329;BME280;5719;42.714;23.732;2023-08-08T01:19:43;94285.66;;;15.15;100.00
11329;BME280;5719;42.714;23.732;2023-08-08T01:22:16;94299.66;;;15.41;100.00
11329;BME280;5719;42.714;23.732;2023-08-08T01:24:50;94308.31;;;15.51;100.00
11329;BME280;5719;42.714;23.732;2023-08-08T01:27:18;94305.00;;;15.59;100.00
11329;BME280;5719;42.714;23.732;2023-08-08T01:29:45;94298.59;;;15.71;100.00
11329;BME280;5719;42.714;23.732;2023-08-08T01:32:12;94302.41;;;15.77;100.00
11329;BME280;5719;42.714;23.732;2023-08-08T01:34:39;94316.22;;;15.87;100.00
11329;BME280;5719;42.714;23.732;2023-08-08T01:37:11;94310.41;;;15.93;100.00
11329;BME280;5719;42.714;23.732;2023-08-08T01:39:40;94308.84;;;16.00;100.00
11329;BME280;5719;42.714;23.732;2023-08-08T01:42:10;94304.56;;;16.08;100.00
11329;BME280;5719;42.714;23.732;2023-08-08T01:44:41;94292.69;;;16.14;100.00
11329;BME280;5719;42.714;23.732;2023-08-08T01:47:08;94289.13;;;16.33;100.00
11329;BME280;5719;42.714;23.732;2023-08-08T01:49:35;94295.47;;;16.30;100.00
11329;BME280;5719;42.714;23.732;2023-08-08T01:52:02;94301.06;;;16.35;100.00
11329;BME280;5719;42.714;23.732;2023-08-08T01:54:31;94313.44;;;16.51;100.00
11329;BME280;5719;42.714;23.732;2023-08-08T01:56:58;94308.06;;;16.52;100.00
11329;BME280;5719;42.714;23.732;2023-08-08T01:59:26;94303.25;;;16.57;100.00
11329;BME280;5719;42.714;23.732;2023-08-08T02:01:53;94312.94;;;16.65;100.00
11329;BME280;5719;42.714;23.732;2023-08-08T02:04:20;94313.63;;;16.67;100.00
11329;BME280;5719;42.714;23.732;2023-08-08T02:06:47;94310.84;;;16.68;100.00
11329;BME280;5719;42.714;23.732;2023-08-08T02:09:14;94317.25;;;16.74;100.00
11329;BME280;5719;42.714;23.732;2023-08-08T02:11:41;94332.47;;;16.79;100.00
11329;BME280;5719;42.714;23.732;2023-08-08T02:14:08;94318.44;;;16.80;100.00
11329;BME280;5719;42.714;23.732;2023-08-08T02:16:36;94326.03;;;16.91;100.00
11329;BME280;5719;42.714;23.732;2023-08-08T02:19:05;94318.19;;;16.91;100.00
11329;BME280;5719;42.714;23.732;2023-08-08T02:21:32;94322.63;;;16.90;100.00
11329;BME280;5719;42.714;23.732;2023-08-08T02:23:58;94324.75;;;16.95;100.00
11329;BME280;5719;42.714;23.732;2023-08-08T02:26:25;94326.41;;;16.96;100.00
11329;BME280;5719;42.714;23.732;2023-08-08T02:28:52;94317.13;;;17.01;100.00
11329;BME280;5719;42.714;23.732;2023-08-08T02:31:19;94302.84;;;16.88;100.00
11329;BME280;5719;42.714;23.732;2023-08-08T02:33:49;94329.47;;;16.91;100.00
11329;BME280;5719;42.714;23.732;2023-08-08T02:36:16;94338.22;;;16.82;100.00
11329;BME280;5719;42.714;23.732;2023-08-08T02:38:43;94329.38;;;16.83;100.00
11329;BME280;5719;42.714;23.732;2023-08-08T02:41:10;94336.50;;;16.73;100.00
11329;BME280;5719;42.714;23.732;2023-08-08T02:43:37;94354.75;;;16.10;100.00
11329;BME280;5719;42.714;23.732;2023-08-08T02:46:04;94379.56;;;15.69;100.00
11329;BME280;5719;42.714;23.732;2023-08-08T02:48:31;94379.09;;;15.37;100.00
11329;BME280;5719;42.714;23.732;2023-08-08T02:50:59;94375.00;;;15.15;100.00
11329;BME280;5719;42.714;23.732;2023-08-08T02:53:26;94358.41;;;15.16;100.00
11329;BME280;5719;42.714;23.732;2023-08-08T02:55:53;94341.97;;;15.26;100.00
11329;BME280;5719;42.714;23.732;2023-08-08T02:58:20;94340.44;;;15.33;100.00
11329;BME280;5719;42.714;23.732;2023-08-08T03:00:46;94355.88;;;15.44;100.00
11329;BME280;5719;42.714;23.732;2023-08-08T03:03:13;94373.88;;;15.37;100.00
11329;BME280;5719;42.714;23.732;2023-08-08T03:05:40;94374.75;;;15.18;100.00
11329;BME280;5719;42.714;23.732;2023-08-08T03:08:08;94379.25;;;15.26;100.00
11329;BME280;5719;42.714;23.732;2023-08-08T03:10:35;94381.31;;;15.23;100.00
11329;BME280;5719;42.714;23.732;2023-08-08T03:13:02;94386.53;;;15.13;100.00
11329;BME280;5719;42.714;23.732;2023-08-08T03:15:29;94380.78;;;15.09;100.00
11329;BME280;5719;42.714;23.732;2023-08-08T03:17:56;94391.22;;;15.00;100.00
11329;BME280;5719;42.714;23.732;2023-08-08T03:20:23;94384.34;;;14.99;100.00
11329;BME280;5719;42.714;23.732;2023-08-08T03:22:50;94380.22;;;15.06;100.00
11329;BME280;5719;42.714;23.732;2023-08-08T03:25:18;94385.59;;;15.04;100.00
11329;BME280;5719;42.714;23.732;2023-08-08T03:27:45;94383.94;;;15.03;100.00
11329;BME280;5719;42.714;23.732;2023-08-08T03:30:13;94391.63;;;14.86;100.00
11329;BME280;5719;42.714;23.732;2023-08-08T03:32:41;94380.13;;;14.69;100.00
11329;BME280;5719;42.714;23.732;2023-08-08T03:35:08;94400.66;;;14.72;100.00
11329;BME280;5719;42.714;23.732;2023-08-08T03:37:35;94367.38;;;14.37;100.00
11329;BME280;5719;42.714;23.732;2023-08-08T03:40:03;94403.25;;;14.72;100.00
11329;BME280;5719;42.714;23.732;2023-08-08T03:42:32;94398.47;;;14.87;100.00
11329;BME280;5719;42.714;23.732;2023-08-08T03:44:58;94412.31;;;14.87;100.00
11329;BME280;5719;42.714;23.732;2023-08-08T03:47:25;94420.94;;;14.88;100.00
11329;BME280;5719;42.714;23.732;2023-08-08T03:49:55;94430.09;;;14.72;100.00
11329;BME280;5719;42.714;23.732;2023-08-08T03:52:23;94428.06;;;14.66;100.00
11329;BME280;5719;42.714;23.732;2023-08-08T03:54:50;94421.06;;;14.77;100.00
11329;BME280;5719;42.714;23.732;2023-08-08T03:57:17;94425.72;;;14.63;100.00
11329;BME280;5719;42.714;23.732;2023-08-08T03:59:45;94432.72;;;14.53;100.00
11329;BME280;5719;42.714;23.732;2023-08-08T04:02:12;94444.84;;;14.43;100.00
11329;BME280;5719;42.714;23.732;2023-08-08T04:04:39;94450.06;;;14.43;100.00
11329;BME280;5719;42.714;23.732;2023-08-08T04:07:06;94446.22;;;14.47;100.00
11329;BME280;5719;42.714;23.732;2023-08-08T04:09:33;94445.84;;;14.42;100.00
11329;BME280;5719;42.714;23.732;2023-08-08T04:12:00;94446.50;;;14.35;100.00
11329;BME280;5719;42.714;23.732;2023-08-08T04:14:26;94438.97;;;14.41;100.00
11329;BME280;5719;42.714;23.732;2023-08-08T04:16:55;94420.97;;;14.29;100.00
11329;BME280;5719;42.714;23.732;2023-08-08T04:19:22;94435.50;;;14.31;100.00
11329;BME280;5719;42.714;23.732;2023-08-08T04:21:49;94420.94;;;14.49;100.00
11329;BME280;5719;42.714;23.732;2023-08-08T04:24:16;94437.22;;;14.51;100.00
11329;BME280;5719;42.714;23.732;2023-08-08T04:26:43;94464.59;;;14.55;100.00
11329;BME280;5719;42.714;23.732;2023-08-08T04:29:10;94467.03;;;14.47;100.00
11329;BME280;5719;42.714;23.732;2023-08-08T04:31:37;94473.91;;;14.48;100.00
11329;BME280;5719;42.714;23.732;2023-08-08T04:34:05;94473.09;;;14.57;100.00
11329;BME280;5719;42.714;23.732;2023-08-08T04:36:32;94480.38;;;14.73;100.00
11329;BME280;5719;42.714;23.732;2023-08-08T04:38:59;94480.94;;;14.77;100.00
11329;BME280;5719;42.714;23.732;2023-08-08T04:41:26;94489.44;;;14.79;100.00
11329;BME280;5719;42.714;23.732;2023-08-08T04:43:53;94490.78;;;14.73;100.00
11329;BME280;5719;42.714;23.732;2023-08-08T04:46:20;94494.09;;;14.85;100.00
11329;BME280;5719;42.714;23.732;2023-08-08T04:48:47;94493.25;;;14.94;100.00
11329;BME280;5719;42.714;23.732;2023-08-08T04:51:15;94488.34;;;15.10;100.00
11329;BME280;5719;42.714;23.732;2023-08-08T04:53:42;94487.66;;;15.27;100.00
11329;BME280;5719;42.714;23.732;2023-08-08T04:56:09;94492.59;;;15.40;100.00
11329;BME280;5719;42.714;23.732;2023-08-08T04:58:36;94503.84;;;15.40;100.00
11329;BME280;5719;42.714;23.732;2023-08-08T05:01:03;94497.28;;;15.55;100.00
11329;BME280;5719;42.714;23.732;2023-08-08T05:03:29;94493.03;;;15.54;100.00
11329;BME280;5719;42.714;23.732;2023-08-08T05:05:56;94486.56;;;15.49;100.00
11329;BME280;5719;42.714;23.732;2023-08-08T05:08:26;94494.66;;;15.55;100.00
11329;BME280;5719;42.714;23.732;2023-08-08T05:10:53;94501.09;;;15.61;100.00
11329;BME280;5719;42.714;23.732;2023-08-08T05:13:20;94501.34;;;15.67;100.00
11329;BME280;5719;42.714;23.732;2023-08-08T05:15:47;94483.53;;;15.73;100.00
11329;BME280;5719;42.714;23.732;2023-08-08T05:18:14;94489.88;;;15.97;100.00
11329;BME280;5719;42.714;23.732;2023-08-08T05:20:41;94479.34;;;15.99;100.00
11329;BME280;5719;42.714;23.732;2023-08-08T05:23:08;94499.25;;;16.27;100.00
11329;BME280;5719;42.714;23.732;2023-08-08T05:25:36;94498.91;;;16.40;100.00
11329;BME280;5719;42.714;23.732;2023-08-08T05:28:03;94506.03;;;16.47;100.00
11329;BME280;5719;42.714;23.732;2023-08-08T05:30:30;94505.53;;;16.34;100.00
11329;BME280;5719;42.714;23.732;2023-08-08T05:32:57;94518.75;;;16.23;100.00
11329;BME280;5719;42.714;23.732;2023-08-08T05:35:24;94525.41;;;16.08;100.00
11329;BME280;5719;42.714;23.732;2023-08-08T05:37:51;94524.88;;;16.04;100.00
11329;BME280;5719;42.714;23.732;2023-08-08T05:40:18;94523.91;;;15.96;100.00
11329;BME280;5719;42.714;23.732;2023-08-08T05:42:46;94528.88;;;15.99;100.00
11329;BME280;5719;42.714;23.732;2023-08-08T05:45:13;94541.38;;;15.95;100.00
11329;BME280;5719;42.714;23.732;2023-08-08T05:47:40;94548.47;;;16.12;100.00
11329;BME280;5719;42.714;23.732;2023-08-08T05:50:07;94549.19;;;16.32;100.00
11329;BME280;5719;42.714;23.732;2023-08-08T05:52:34;94533.38;;;16.43;100.00
11329;BME280;5719;42.714;23.732;2023-08-08T05:55:01;94549.56;;;16.56;100.00
11329;BME280;5719;42.714;23.732;2023-08-08T05:57:28;94548.06;;;16.44;100.00
11329;BME280;5719;42.714;23.732;2023-08-08T05:59:57;94559.44;;;16.53;100.00
11329;BME280;5719;42.714;23.732;2023-08-08T06:02:24;94549.72;;;16.45;100.00
11329;BME280;5719;42.714;23.732;2023-08-08T06:04:51;94535.59;;;16.38;100.00
11329;BME280;5719;42.714;23.732;2023-08-08T06:07:18;94545.31;;;16.46;100.00
11329;BME280;5719;42.714;23.732;2023-08-08T06:09:45;94545.88;;;16.40;100.00
11329;BME280;5719;42.714;23.732;2023-08-08T06:12:12;94550.00;;;16.42;100.00
11329;BME280;5719;42.714;23.732;2023-08-08T06:14:39;94558.72;;;16.24;100.00
11329;BME280;5719;42.714;23.732;2023-08-08T06:17:07;94562.69;;;16.28;100.00
11329;BME280;5719;42.714;23.732;2023-08-08T06:19:34;94559.31;;;16.45;100.00
11329;BME280;5719;42.714;23.732;2023-08-08T06:22:02;94552.09;;;16.39;100.00
11329;BME280;5719;42.714;23.732;2023-08-08T06:24:29;94557.09;;;16.59;100.00
11329;BME280;5719;42.714;23.732;2023-08-08T06:26:56;94563.41;;;16.94;100.00
11329;BME280;5719;42.714;23.732;2023-08-08T06:29:23;94566.09;;;17.20;100.00
11329;BME280;5719;42.714;23.732;2023-08-08T06:31:50;94549.97;;;17.24;100.00
11329;BME280;5719;42.714;23.732;2023-08-08T06:34:18;94552.59;;;17.06;100.00
11329;BME280;5719;42.714;23.732;2023-08-08T06:36:45;94561.88;;;17.19;100.00
11329;BME280;5719;42.714;23.732;2023-08-08T06:39:12;94565.00;;;17.22;100.00
11329;BME280;5719;42.714;23.732;2023-08-08T06:41:40;94558.72;;;17.15;100.00
11329;BME280;5719;42.714;23.732;2023-08-08T06:44:07;94561.94;;;17.27;100.00
11329;BME280;5719;42.714;23.732;2023-08-08T06:46:34;94552.81;;;17.31;100.00
11329;BME280;5719;42.714;23.732;2023-08-08T06:49:01;94551.41;;;17.36;100.00
11329;BME280;5719;42.714;23.732;2023-08-08T06:51:30;94559.25;;;17.54;100.00
11329;BME280;5719;42.714;23.732;2023-08-08T06:53:57;94566.34;;;17.79;100.00
11329;BME280;5719;42.714;23.732;2023-08-08T06:56:24;94562.50;;;18.09;100.00
11329;BME280;5719;42.714;23.732;2023-08-08T06:58:52;94565.19;;;18.25;97.56
11329;BME280;5719;42.714;23.732;2023-08-08T07:01:19;94565.16;;;18.43;92.48
11329;BME280;5719;42.714;23.732;2023-08-08T07:03:46;94568.91;;;18.66;93.92
11329;BME280;5719;42.714;23.732;2023-08-08T07:06:17;94571.31;;;18.59;94.26
11329;BME280;5719;42.714;23.732;2023-08-08T07:08:45;94567.41;;;18.64;94.36
11329;BME280;5719;42.714;23.732;2023-08-08T07:11:12;94571.38;;;18.68;86.21
11329;BME280;5719;42.714;23.732;2023-08-08T07:13:39;94573.13;;;18.93;88.76
11329;BME280;5719;42.714;23.732;2023-08-08T07:16:06;94564.50;;;19.08;85.36
11329;BME280;5719;42.714;23.732;2023-08-08T07:18:33;94556.81;;;19.15;81.22
11329;BME280;5719;42.714;23.732;2023-08-08T07:21:00;94564.69;;;19.23;80.93
11329;BME280;5719;42.714;23.732;2023-08-08T07:23:27;94568.03;;;19.49;85.26
11329;BME280;5719;42.714;23.732;2023-08-08T07:25:55;94544.44;;;19.90;81.57
11329;BME280;5719;42.714;23.732;2023-08-08T07:28:24;94555.91;;;19.97;80.06
11329;BME280;5719;42.714;23.732;2023-08-08T07:30:51;94493.63;;;19.58;78.75
11329;BME280;5719;42.714;23.732;2023-08-08T07:33:18;94516.75;;;19.55;77.57
11329;BME280;5719;42.714;23.732;2023-08-08T07:35:45;94559.72;;;19.70;76.12
11329;BME280;5719;42.714;23.732;2023-08-08T07:38:12;94552.84;;;19.85;80.24
11329;BME280;5719;42.714;23.732;2023-08-08T07:40:39;94555.44;;;19.93;79.04
11329;BME280;5719;42.714;23.732;2023-08-08T07:43:08;94569.88;;;19.65;71.70
11329;BME280;5719;42.714;23.732;2023-08-08T07:45:35;94557.91;;;19.79;77.09
11329;BME280;5719;42.714;23.732;2023-08-08T07:48:03;94556.91;;;20.04;72.83
11329;BME280;5719;42.714;23.732;2023-08-08T07:50:30;94569.69;;;19.83;72.33
11329;BME280;5719;42.714;23.732;2023-08-08T07:52:57;94568.22;;;19.72;72.29
11329;BME280;5719;42.714;23.732;2023-08-08T07:55:24;94546.75;;;19.69;74.31
11329;BME280;5719;42.714;23.732;2023-08-08T07:57:51;94540.38;;;19.63;77.20
11329;BME280;5719;42.714;23.732;2023-08-08T08:00:20;94570.38;;;19.85;72.04
11329;BME280;5719;42.714;23.732;2023-08-08T08:02:47;94560.88;;;19.92;77.06
11329;BME280;5719;42.714;23.732;2023-08-08T08:05:14;94570.66;;;20.22;79.88
11329;BME280;5719;42.714;23.732;2023-08-08T08:07:41;94557.03;;;20.19;72.91
11329;BME280;5719;42.714;23.732;2023-08-08T08:10:09;94559.84;;;20.25;75.57
11329;BME280;5719;42.714;23.732;2023-08-08T08:12:41;94563.16;;;20.03;74.90
11329;BME280;5719;42.714;23.732;2023-08-08T08:15:09;94566.44;;;19.89;74.93
11329;BME280;5719;42.714;23.732;2023-08-08T08:17:37;94568.22;;;20.13;76.44
11329;BME280;5719;42.714;23.732;2023-08-08T08:20:05;94545.59;;;20.36;71.79
11329;BME280;5719;42.714;23.732;2023-08-08T08:22:36;94561.31;;;20.20;72.62
11329;BME280;5719;42.714;23.732;2023-08-08T08:25:04;94558.88;;;20.18;74.64
11329;BME280;5719;42.714;23.732;2023-08-08T08:27:33;94568.03;;;20.46;72.11
11329;BME280;5719;42.714;23.732;2023-08-08T08:30:00;94560.84;;;20.24;68.34
11329;BME280;5719;42.714;23.732;2023-08-08T08:32:27;94561.50;;;20.34;69.65
11329;BME280;5719;42.714;23.732;2023-08-08T08:34:55;94548.38;;;20.18;72.28
11329;BME280;5719;42.714;23.732;2023-08-08T08:37:22;94565.47;;;20.77;66.79
11329;BME280;5719;42.714;23.732;2023-08-08T08:39:49;94557.66;;;21.00;66.71
11329;BME280;5719;42.714;23.732;2023-08-08T08:42:16;94553.72;;;21.12;64.37
11329;BME280;5719;42.714;23.732;2023-08-08T08:44:43;94557.53;;;20.93;63.52
11329;BME280;5719;42.714;23.732;2023-08-08T08:47:13;94556.66;;;21.09;64.92
11329;BME280;5719;42.714;23.732;2023-08-08T08:49:42;94560.56;;;21.21;63.48
11329;BME280;5719;42.714;23.732;2023-08-08T08:52:11;94562.03;;;21.24;64.65
11329;BME280;5719;42.714;23.732;2023-08-08T08:54:38;94549.56;;;21.48;63.56
11329;BME280;5719;42.714;23.732;2023-08-08T08:57:06;94558.00;;;21.36;68.98
11329;BME280;5719;42.714;23.732;2023-08-08T08:59:33;94555.91;;;21.54;65.44
11329;BME280;5719;42.714;23.732;2023-08-08T09:02:00;94552.66;;;21.97;63.67
11329;BME280;5719;42.714;23.732;2023-08-08T09:04:28;94551.72;;;22.13;61.63
11329;BME280;5719;42.714;23.732;2023-08-08T09:06:55;94563.34;;;22.33;62.28
11329;BME280;5719;42.714;23.732;2023-08-08T09:09:25;94550.88;;;22.65;58.66
11329;BME280;5719;42.714;23.732;2023-08-08T09:11:53;94555.22;;;22.43;56.61
11329;BME280;5719;42.714;23.732;2023-08-08T09:14:21;94557.31;;;22.47;57.90
11329;BME280;5719;42.714;23.732;2023-08-08T09:16:49;94558.16;;;21.88;59.62
11329;BME280;5719;42.714;23.732;2023-08-08T09:19:17;94564.28;;;21.58;60.07
11329;BME280;5719;42.714;23.732;2023-08-08T09:21:44;94562.31;;;21.29;63.01
11329;BME280;5719;42.714;23.732;2023-08-08T09:24:12;94530.53;;;21.08;64.12
11329;BME280;5719;42.714;23.732;2023-08-08T09:26:40;94563.53;;;21.18;63.78
11329;BME280;5719;42.714;23.732;2023-08-08T09:29:08;94567.97;;;21.10;63.37
11329;BME280;5719;42.714;23.732;2023-08-08T09:31:35;94582.19;;;20.92;62.95
11329;BME280;5719;42.714;23.732;2023-08-08T09:34:03;94576.75;;;20.94;63.55
11329;BME280;5719;42.714;23.732;2023-08-08T09:36:31;94579.66;;;21.07;62.96
11329;BME280;5719;42.714;23.732;2023-08-08T09:39:00;94569.72;;;21.25;62.71
11329;BME280;5719;42.714;23.732;2023-08-08T09:41:27;94577.81;;;21.46;63.51
11329;BME280;5719;42.714;23.732;2023-08-08T09:43:56;94582.53;;;21.59;61.12
11329;BME280;5719;42.714;23.732;2023-08-08T09:46:25;94583.03;;;21.55;62.05
11329;BME280;5719;42.714;23.732;2023-08-08T09:48:52;94574.69;;;21.51;61.48
11329;BME280;5719;42.714;23.732;2023-08-08T09:51:21;94582.47;;;21.44;60.65
11329;BME280;5719;42.714;23.732;2023-08-08T09:53:48;94584.69;;;21.56;61.11
11329;BME280;5719;42.714;23.732;2023-08-08T09:56:16;94587.28;;;21.64;60.06
11329;BME280;5719;42.714;23.732;2023-08-08T09:58:46;94590.69;;;21.64;60.51
11329;BME280;5719;42.714;23.732;2023-08-08T10:01:14;94588.38;;;21.69;59.89
11329;BME280;5719;42.714;23.732;2023-08-08T10:03:42;94590.59;;;21.80;58.27
11329;BME280;5719;42.714;23.732;2023-08-08T10:06:09;94603.16;;;22.01;57.69
11329;BME280;5719;42.714;23.732;2023-08-08T10:08:36;94588.06;;;21.95;55.36
11329;BME280;5719;42.714;23.732;2023-08-08T10:11:05;94592.09;;;22.06;56.92
11329;BME280;5719;42.714;23.732;2023-08-08T10:13:35;94582.78;;;22.18;56.84
11329;BME280;5719;42.714;23.732;2023-08-08T10:16:04;94586.97;;;22.27;58.00
11329;BME280;5719;42.714;23.732;2023-08-08T10:18:35;94566.00;;;21.96;58.07
11329;BME280;5719;42.714;23.732;2023-08-08T10:21:04;94591.06;;;22.29;55.95
11329;BME280;5719;42.714;23.732;2023-08-08T10:23:35;94588.28;;;22.45;55.25
11329;BME280;5719;42.714;23.732;2023-08-08T10:26:03;94588.66;;;22.57;55.60
11329;BME280;5719;42.714;23.732;2023-08-08T10:28:32;94589.06;;;22.69;58.72
11329;BME280;5719;42.714;23.732;2023-08-08T10:31:00;94589.19;;;22.53;56.60
11329;BME280;5719;42.714;23.732;2023-08-08T10:33:41;94587.69;;;22.21;56.43
11329;BME280;5719;42.714;23.732;2023-08-08T10:36:09;94590.13;;;22.22;57.57
11329;BME280;5719;42.714;23.732;2023-08-08T10:38:40;94565.63;;;22.22;57.27
11329;BME280;5719;42.714;23.732;2023-08-08T10:41:12;94570.38;;;22.41;57.54
11329;BME280;5719;42.714;23.732;2023-08-08T10:43:48;94567.53;;;22.80;56.26
11329;BME280;5719;42.714;23.732;2023-08-08T10:46:23;94556.41;;;22.99;54.62
11329;BME280;5719;42.714;23.732;2023-08-08T10:48:52;94563.97;;;23.17;56.23
11329;BME280;5719;42.714;23.732;2023-08-08T10:51:20;94553.66;;;23.58;53.09
11329;BME280;5719;42.714;23.732;2023-08-08T10:53:50;94551.03;;;23.79;51.20
11329;BME280;5719;42.714;23.732;2023-08-08T10:56:18;94560.03;;;23.42;55.55
11329;BME280;5719;42.714;23.732;2023-08-08T10:58:48;94557.06;;;22.72;54.39
11329;BME280;5719;42.714;23.732;2023-08-08T11:01:15;94543.66;;;22.29;54.76
11329;BME280;5719;42.714;23.732;2023-08-08T11:03:43;94551.84;;;21.97;59.04
11329;BME280;5719;42.714;23.732;2023-08-08T11:06:12;94547.72;;;21.72;58.07
11329;BME280;5719;42.714;23.732;2023-08-08T11:08:39;94549.31;;;21.81;58.92
11329;BME280;5719;42.714;23.732;2023-08-08T11:11:06;94555.56;;;21.80;60.51
11329;BME280;5719;42.714;23.732;2023-08-08T11:13:33;94550.50;;;22.01;59.35
11329;BME280;5719;42.714;23.732;2023-08-08T11:16:00;94552.78;;;22.19;59.07
11329;BME280;5719;42.714;23.732;2023-08-08T11:18:28;94555.66;;;22.46;57.80
11329;BME280;5719;42.714;23.732;2023-08-08T11:20:55;94551.16;;;22.70;56.79
11329;BME280;5719;42.714;23.732;2023-08-08T11:23:24;94555.50;;;22.92;56.84
11329;BME280;5719;42.714;23.732;2023-08-08T11:25:51;94553.59;;;23.15;53.13
11329;BME280;5719;42.714;23.732;2023-08-08T11:28:18;94548.47;;;23.14;51.64
11329;BME280;5719;42.714;23.732;2023-08-08T11:30:45;94548.09;;;23.31;52.22
11329;BME280;5719;42.714;23.732;2023-08-08T11:33:13;94554.88;;;23.40;51.50
11329;BME280;5719;42.714;23.732;2023-08-08T11:35:44;94548.59;;;23.56;50.32
11329;BME280;5719;42.714;23.732;2023-08-08T11:38:14;94550.25;;;23.42;53.88
11329;BME280;5719;42.714;23.732;2023-08-08T11:40:43;94553.63;;;23.36;54.36
11329;BME280;5719;42.714;23.732;2023-08-08T11:43:11;94549.25;;;23.43;52.14
11329;BME280;5719;42.714;23.732;2023-08-08T11:45:39;94547.50;;;23.51;53.05
11329;BME280;5719;42.714;23.732;2023-08-08T11:48:08;94534.69;;;23.90;51.84
11329;BME280;5719;42.714;23.732;2023-08-08T11:50:37;94535.81;;;24.23;49.67
11329;BME280;5719;42.714;23.732;2023-08-08T11:53:06;94528.06;;;24.50;49.86
11329;BME280;5719;42.714;23.732;2023-08-08T11:55:33;94529.06;;;24.76;48.76
11329;BME280;5719;42.714;23.732;2023-08-08T11:58:04;94533.13;;;24.79;48.10
11329;BME280;5719;42.714;23.732;2023-08-08T12:00:32;94528.00;;;24.71;48.53
11329;BME280;5719;42.714;23.732;2023-08-08T12:03:01;94532.28;;;24.72;48.74
11329;BME280;5719;42.714;23.732;2023-08-08T12:05:29;94520.19;;;24.56;48.95
11329;BME280;5719;42.714;23.732;2023-08-08T12:07:58;94512.06;;;24.58;47.19
11329;BME280;5719;42.714;23.732;2023-08-08T12:10:26;94522.88;;;24.97;48.95
11329;BME280;5719;42.714;23.732;2023-08-08T12:12:56;94520.78;;;25.40;46.07
11329;BME280;5719;42.714;23.732;2023-08-08T12:15:29;94520.66;;;25.61;45.72
11329;BME280;5719;42.714;23.732;2023-08-08T12:17:57;94515.72;;;25.38;45.07
11329;BME280;5719;42.714;23.732;2023-08-08T12:20:27;94516.84;;;25.10;46.39
11329;BME280;5719;42.714;23.732;2023-08-08T12:22:55;94511.06;;;24.93;46.99
11329;BME280;5719;42.714;23.732;2023-08-08T12:25:22;94503.34;;;24.98;46.76
11329;BME280;5719;42.714;23.732;2023-08-08T12:27:49;94504.25;;;25.25;46.00
11329;BME280;5719;42.714;23.732;2023-08-08T12:30:17;94504.94;;;25.47;45.74
11329;BME280;5719;42.714;23.732;2023-08-08T12:32:46;94462.03;;;25.64;44.80
11329;BME280;5719;42.714;23.732;2023-08-08T12:35:14;94502.00;;;26.28;44.43
11329;BME280;5719;42.714;23.732;2023-08-08T12:37:42;94503.19;;;26.59;42.95
11329;BME280;5719;42.714;23.732;2023-08-08T12:40:11;94501.94;;;26.88;45.45
11329;BME280;5719;42.714;23.732;2023-08-08T12:42:38;94502.88;;;27.00;43.56
11329;BME280;5719;42.714;23.732;2023-08-08T12:45:06;94499.84;;;27.03;44.44
11329;BME280;5719;42.714;23.732;2023-08-08T12:47:33;94500.28;;;27.38;42.22
11329;BME280;5719;42.714;23.732;2023-08-08T12:50:03;94505.91;;;27.16;43.12
11329;BME280;5719;42.714;23.732;2023-08-08T12:52:31;94494.25;;;26.40;41.43
11329;BME280;5719;42.714;23.732;2023-08-08T12:54:58;94503.84;;;26.41;43.50
11329;BME280;5719;42.714;23.732;2023-08-08T12:57:25;94499.78;;;26.25;43.86